createdAt,value
2022-08-12T00:00:52.692Z,23.10
2022-08-12T00:03:38.579Z,23.10
2022-08-12T00:06:25.855Z,23.10
2022-08-12T00:09:11.440Z,23.00
2022-08-12T00:11:56.987Z,23.00
2022-08-12T00:14:43.011Z,22.90
2022-08-12T00:17:28.985Z,22.90
2022-08-12T00:20:14.718Z,22.80
2022-08-12T00:23:01.365Z,22.70
2022-08-12T00:26:21.496Z,22.70
2022-08-12T00:29:09.927Z,22.70
2022-08-12T00:31:55.674Z,22.60
2022-08-12T00:34:41.282Z,22.60
2022-08-12T00:37:27.761Z,22.50
2022-08-12T00:40:15.245Z,22.40
2022-08-12T00:42:43.135Z,22.30
2022-08-12T00:45:11.017Z,22.20
2022-08-12T00:47:39.617Z,22.20
2022-08-12T00:50:08.379Z,22.10
2022-08-12T00:52:36.073Z,22.10
2022-08-12T00:55:06.323Z,22.10
2022-08-12T00:57:37.027Z,22.00
2022-08-12T01:00:08.775Z,21.90
2022-08-12T01:02:40.462Z,21.90
2022-08-12T01:05:28.359Z,21.90
2022-08-12T01:08:14.442Z,21.90
2022-08-12T01:11:02.710Z,21.80
2022-08-12T01:13:31.415Z,21.70
2022-08-12T01:16:03.097Z,21.60
2022-08-12T01:18:32.850Z,21.60
2022-08-12T01:21:27.785Z,21.50
2022-08-12T01:24:22.911Z,21.50
2022-08-12T01:26:59.802Z,21.50
2022-08-12T01:29:35.190Z,21.40
2022-08-12T01:32:09.017Z,21.40
2022-08-12T01:34:38.744Z,21.40
2022-08-12T01:37:10.251Z,21.30
2022-08-12T01:40:34.371Z,21.20
2022-08-12T01:42:41.988Z,21.20
2022-08-12T01:45:10.126Z,21.10
2022-08-12T01:48:14.448Z,21.10
2022-08-12T01:50:50.589Z,21.10
2022-08-12T01:53:21.045Z,21.00
2022-08-12T01:55:49.558Z,21.00
2022-08-12T01:58:51.705Z,21.00
2022-08-12T02:01:23.711Z,20.90
2022-08-12T02:04:37.077Z,20.90
2022-08-12T02:07:42.758Z,20.80
2022-08-12T02:10:53.751Z,20.80
2022-08-12T02:13:48.165Z,20.80
2022-08-12T02:16:36.474Z,20.80
2022-08-12T02:19:29.855Z,20.80
2022-08-12T02:22:38.612Z,20.70
2022-08-12T02:25:10.861Z,20.70
2022-08-12T02:27:41.705Z,20.60
2022-08-12T02:30:11.569Z,20.50
2022-08-12T02:32:42.428Z,20.50
2022-08-12T02:35:24.790Z,20.50
2022-08-12T02:37:55.794Z,20.40
2022-08-12T02:40:25.715Z,20.50
2022-08-12T02:43:03.768Z,20.40
2022-08-12T02:45:45.575Z,20.40
2022-08-12T02:48:19.019Z,20.30
2022-08-12T02:50:51.739Z,20.30
2022-08-12T02:53:20.139Z,20.30
2022-08-12T02:55:47.232Z,20.30
2022-08-12T02:58:15.012Z,20.30
2022-08-12T03:00:44.136Z,20.30
2022-08-12T03:03:15.012Z,20.30
2022-08-12T03:05:52.487Z,20.30
2022-08-12T03:08:31.922Z,20.30
2022-08-12T03:11:19.796Z,20.20
2022-08-12T03:13:53.185Z,20.20
2022-08-12T03:16:20.964Z,20.20
2022-08-12T03:18:50.257Z,20.10
2022-08-12T03:21:58.054Z,20.10
2022-08-12T03:24:09.137Z,20.00
2022-08-12T03:26:37.107Z,20.00
2022-08-12T03:29:06.971Z,19.90
2022-08-12T03:31:34.478Z,19.90
2022-08-12T03:34:11.399Z,19.90
2022-08-12T03:36:41.127Z,19.80
2022-08-12T03:39:14.150Z,19.80
2022-08-12T03:42:01.991Z,19.80
2022-08-12T03:45:14.162Z,19.70
2022-08-12T03:48:13.333Z,19.60
2022-08-12T03:51:06.611Z,19.60
2022-08-12T03:53:53.344Z,19.50
2022-08-12T03:56:38.924Z,19.50
2022-08-12T03:59:26.060Z,19.40
2022-08-12T04:01:57.861Z,19.40
2022-08-12T04:04:34.940Z,19.30
2022-08-12T04:07:10.934Z,19.20
2022-08-12T04:09:43.372Z,19.20
2022-08-12T04:12:32.754Z,19.20
2022-08-12T04:15:01.439Z,19.10
2022-08-12T04:17:29.023Z,19.00
2022-08-12T04:19:58.153Z,19.00
2022-08-12T04:22:30.925Z,19.00
2022-08-12T04:25:02.788Z,18.90
2022-08-12T04:27:32.069Z,18.90
2022-08-12T04:30:30.843Z,18.90
2022-08-12T04:32:50.167Z,18.90
2022-08-12T04:35:18.018Z,18.90
2022-08-12T04:37:58.825Z,18.90
2022-08-12T04:40:31.240Z,18.90
2022-08-12T04:43:01.414Z,18.90
2022-08-12T04:45:30.333Z,18.90
2022-08-12T04:47:57.466Z,18.80
2022-08-12T04:50:26.910Z,18.80
2022-08-12T04:53:05.548Z,18.90
2022-08-12T04:55:34.881Z,18.90
2022-08-12T04:58:02.190Z,18.90
2022-08-12T05:00:29.225Z,18.90
2022-08-12T05:02:56.388Z,18.90
2022-08-12T05:05:24.190Z,18.90
2022-08-12T05:07:54.250Z,19.00
2022-08-12T05:10:34.011Z,18.90
2022-08-12T05:13:08.015Z,18.90
2022-08-12T05:16:02.636Z,18.90
2022-08-12T05:18:29.315Z,18.90
2022-08-12T05:20:59.207Z,19.00
2022-08-12T05:23:27.011Z,19.00
2022-08-12T05:25:57.200Z,19.00
2022-08-12T05:28:27.372Z,19.00
2022-08-12T05:30:55.280Z,19.00
2022-08-12T05:33:31.802Z,19.10
2022-08-12T05:35:59.239Z,19.10
2022-08-12T05:38:44.994Z,19.10
2022-08-12T05:41:20.471Z,19.20
2022-08-12T05:43:51.181Z,19.20
2022-08-12T05:46:19.576Z,19.20
2022-08-12T05:48:47.672Z,19.30
2022-08-12T05:51:14.777Z,19.30
2022-08-12T05:53:42.281Z,19.40
2022-08-12T05:56:24.338Z,19.40
2022-08-12T05:58:52.261Z,19.50
2022-08-12T06:02:09.212Z,19.50
2022-08-12T06:04:09.409Z,19.60
2022-08-12T06:06:41.451Z,19.60
2022-08-12T06:09:13.355Z,19.70
2022-08-12T06:12:04.793Z,19.70
2022-08-12T06:14:39.038Z,19.70
2022-08-12T06:17:09.141Z,19.80
2022-08-12T06:20:22.898Z,19.80
2022-08-12T06:22:23.813Z,19.80
2022-08-12T06:24:53.022Z,19.90
2022-08-12T06:27:21.647Z,20.00
2022-08-12T06:30:08.388Z,20.00
2022-08-12T06:32:42.899Z,20.00
2022-08-12T06:35:25.991Z,20.10
2022-08-12T06:38:03.971Z,20.10
2022-08-12T06:40:49.284Z,20.30
2022-08-12T06:43:16.275Z,20.30
2022-08-12T06:45:47.425Z,20.40
2022-08-12T06:48:15.136Z,20.50
2022-08-12T06:50:42.718Z,20.60
2022-08-12T06:53:11.446Z,20.60
2022-08-12T06:55:39.530Z,20.70
2022-08-12T06:58:26.064Z,20.80
2022-08-12T07:00:53.455Z,20.80
2022-08-12T07:03:28.763Z,20.90
2022-08-12T07:05:58.508Z,21.00
2022-08-12T07:08:29.175Z,21.10
2022-08-12T07:10:59.406Z,21.20
2022-08-12T07:14:02.594Z,21.30
2022-08-12T07:16:50.565Z,21.40
2022-08-12T07:19:17.819Z,21.50
2022-08-12T07:21:55.784Z,21.60
2022-08-12T07:24:29.651Z,21.70
2022-08-12T07:26:56.620Z,21.80
2022-08-12T07:29:23.708Z,21.90
2022-08-12T07:32:10.696Z,21.90
2022-08-12T07:34:37.645Z,22.00
2022-08-12T07:37:04.822Z,22.10
2022-08-12T07:39:35.941Z,22.20
2022-08-12T07:42:04.650Z,22.30
2022-08-12T07:44:32.707Z,22.30
2022-08-12T07:47:00.143Z,22.40
2022-08-12T07:49:28.218Z,22.50
2022-08-12T07:51:55.157Z,22.60
2022-08-12T07:54:22.500Z,22.70
2022-08-12T07:56:49.508Z,22.80
2022-08-12T07:59:16.628Z,22.90
2022-08-12T08:01:43.725Z,23.00
2022-08-12T08:04:29.034Z,23.00
2022-08-12T08:06:57.994Z,23.10
2022-08-12T08:09:25.030Z,23.20
2022-08-12T08:12:18.582Z,23.20
2022-08-12T08:14:46.547Z,23.30
2022-08-12T08:17:17.515Z,23.40
2022-08-12T08:20:02.173Z,23.60
2022-08-12T08:22:41.950Z,23.70
2022-08-12T08:25:34.569Z,23.80
2022-08-12T08:28:04.361Z,23.90
2022-08-12T08:30:32.795Z,23.90
2022-08-12T08:33:00.358Z,24.10
2022-08-12T08:35:28.160Z,24.10
2022-08-12T08:38:17.639Z,24.20
2022-08-12T08:42:15.752Z,24.30
2022-08-12T08:44:06.209Z,24.40
2022-08-12T08:46:37.890Z,24.50
2022-08-12T08:49:05.997Z,24.50
2022-08-12T08:51:33.607Z,24.70
2022-08-12T08:54:00.881Z,24.80
2022-08-12T08:56:29.739Z,24.90
2022-08-12T08:58:57.807Z,25.00
2022-08-12T09:01:25.823Z,25.10
2022-08-12T09:05:08.390Z,25.10
2022-08-12T09:06:53.421Z,25.20
2022-08-12T09:09:21.367Z,25.30
2022-08-12T09:12:11.737Z,25.30
2022-08-12T09:14:46.970Z,25.40
2022-08-12T09:17:21.401Z,25.50
2022-08-12T09:19:57.533Z,25.60
2022-08-12T09:22:28.507Z,25.70
2022-08-12T09:28:05.260Z,25.80
2022-08-12T09:30:41.852Z,25.90
2022-08-12T09:33:18.327Z,26.00
2022-08-12T09:36:03.311Z,26.00
2022-08-12T09:38:35.495Z,26.10
2022-08-12T09:42:33.621Z,26.20
2022-08-12T09:44:38.106Z,26.30
2022-08-12T09:46:58.199Z,26.50
2022-08-12T09:49:25.289Z,26.70
2022-08-12T09:51:55.573Z,26.90
2022-08-12T09:54:33.408Z,27.10
2022-08-12T09:58:45.671Z,27.30
2022-08-12T10:00:17.835Z,27.50
2022-08-12T10:03:01.091Z,27.80
2022-08-12T10:06:11.906Z,28.20
2022-08-12T10:08:27.666Z,28.40
2022-08-12T10:11:18.392Z,28.70
2022-08-12T10:13:50.102Z,28.80
2022-08-12T10:16:36.806Z,29.00
2022-08-12T10:19:06.212Z,29.30
2022-08-12T10:21:45.355Z,29.80
2022-08-12T10:24:20.377Z,30.40
2022-08-12T10:27:06.464Z,31.00
2022-08-12T10:30:03.735Z,31.20
2022-08-12T10:32:43.148Z,31.60
2022-08-12T10:35:15.947Z,32.20
2022-08-12T10:38:37.133Z,32.80
2022-08-12T10:40:34.052Z,33.20
2022-08-12T10:43:23.128Z,33.70
2022-08-12T10:45:54.251Z,34.40
2022-08-12T10:48:33.203Z,34.60
2022-08-12T10:51:52.019Z,34.70
2022-08-12T10:54:00.286Z,35.00
2022-08-12T10:56:34.733Z,35.40
2022-08-12T10:59:10.588Z,36.40
2022-08-12T11:04:18.337Z,36.30
2022-08-12T11:04:39.472Z,36.80
2022-08-12T11:08:33.668Z,36.60
2022-08-12T11:10:01.406Z,36.70
2022-08-12T11:12:55.111Z,37.00
2022-08-12T11:15:33.135Z,38.00
2022-08-12T11:18:11.538Z,38.50
2022-08-12T11:20:39.884Z,39.40
2022-08-12T11:23:25.107Z,40.10
2022-08-12T11:26:00.475Z,40.90
2022-08-12T11:28:35.037Z,41.10
2022-08-12T11:31:05.792Z,41.90
2022-08-12T11:34:06.373Z,42.60
2022-08-12T11:36:21.908Z,43.30
2022-08-12T11:38:50.539Z,44.00
2022-08-12T11:41:31.076Z,44.10
2022-08-12T11:44:00.011Z,44.40
2022-08-12T11:46:51.414Z,45.40
2022-08-12T11:49:31.047Z,45.80
2022-08-12T11:52:02.083Z,47.20
2022-08-12T11:54:30.305Z,48.40
2022-08-12T11:57:02.463Z,48.90
2022-08-12T12:02:20.513Z,45.80
2022-08-12T12:04:52.121Z,43.70
2022-08-12T12:07:19.521Z,44.00
2022-08-12T12:09:52.658Z,45.40
2022-08-12T12:12:22.653Z,47.10
2022-08-12T12:14:54.659Z,48.60
2022-08-12T12:17:38.062Z,48.90
2022-08-12T12:20:11.513Z,49.30
2022-08-12T12:22:41.470Z,49.60
2022-08-12T12:25:13.782Z,51.00
2022-08-12T12:28:04.104Z,51.50
2022-08-12T12:30:37.364Z,52.30
2022-08-12T12:33:06.442Z,52.80
2022-08-12T12:36:17.042Z,52.20
2022-08-12T12:38:25.129Z,52.60
2022-08-12T12:40:52.730Z,53.00
2022-08-12T12:43:42.381Z,53.40
2022-08-12T12:46:08.814Z,53.80
2022-08-12T12:48:35.959Z,53.70
2022-08-12T12:51:49.503Z,52.40
2022-08-12T12:54:08.503Z,52.10
2022-08-12T12:56:40.621Z,51.10
2022-08-12T12:59:33.550Z,49.90
2022-08-12T13:01:55.715Z,49.30
2022-08-12T13:04:22.804Z,49.40
2022-08-12T13:06:52.326Z,48.90
2022-08-12T13:09:22.830Z,48.80
2022-08-12T13:11:53.449Z,48.60
2022-08-12T13:14:27.871Z,48.50
2022-08-12T13:16:56.414Z,48.40
2022-08-12T13:19:36.526Z,47.70
2022-08-12T13:22:21.249Z,46.90
2022-08-12T13:24:56.615Z,45.70
2022-08-12T13:27:51.030Z,45.10
2022-08-12T13:30:23.826Z,44.10
2022-08-12T13:33:00.432Z,43.70
2022-08-12T13:36:06.180Z,43.30
2022-08-12T13:38:44.005Z,42.60
2022-08-12T13:41:34.342Z,42.30
2022-08-12T13:44:04.130Z,42.10
2022-08-12T13:46:32.028Z,41.60
2022-08-12T13:48:59.126Z,41.60
2022-08-12T13:51:26.263Z,42.30
2022-08-12T13:54:11.711Z,42.10
2022-08-12T13:56:41.309Z,41.10
2022-08-12T13:59:20.478Z,40.10
2022-08-12T14:01:53.576Z,39.10
2022-08-12T14:04:23.930Z,38.30
2022-08-12T14:06:51.925Z,38.40
2022-08-12T14:09:19.947Z,38.60
2022-08-12T14:11:58.659Z,38.90
2022-08-12T14:14:31.805Z,40.10
2022-08-12T14:17:05.450Z,40.90
2022-08-12T14:19:37.596Z,40.60
2022-08-12T14:22:10.602Z,40.60
2022-08-12T14:24:40.629Z,40.40
2022-08-12T14:27:10.362Z,40.20
2022-08-12T14:30:04.463Z,39.70
2022-08-12T14:32:35.659Z,39.40
2022-08-12T14:35:09.148Z,39.10
2022-08-12T14:37:57.166Z,38.70
2022-08-12T14:40:28.030Z,38.50
2022-08-12T14:42:56.889Z,38.00
2022-08-12T14:45:37.253Z,37.90
2022-08-12T14:48:13.509Z,37.90
2022-08-12T14:51:02.603Z,38.00
2022-08-12T14:59:57.240Z,37.50
2022-08-12T15:02:19.670Z,36.90
2022-08-12T15:04:52.461Z,36.50
2022-08-12T15:07:34.244Z,36.10
2022-08-12T15:10:07.343Z,35.90
2022-08-12T15:12:34.576Z,36.00
2022-08-12T15:15:02.805Z,36.10
2022-08-12T15:17:38.166Z,36.00
2022-08-12T15:20:28.011Z,35.80
2022-08-12T15:22:55.155Z,35.70
2022-08-12T15:25:22.415Z,35.70
2022-08-12T15:28:04.757Z,35.70
2022-08-12T15:30:35.257Z,35.70
2022-08-12T15:33:12.638Z,35.70
2022-08-12T15:35:52.146Z,35.50
2022-08-12T15:38:21.876Z,35.50
2022-08-12T15:40:52.647Z,35.30
2022-08-12T15:43:51.778Z,35.30
2022-08-12T15:46:08.214Z,35.40
2022-08-12T15:48:46.860Z,35.20
2022-08-12T15:51:58.292Z,34.90
2022-08-12T15:54:33.521Z,34.90
2022-08-12T15:57:07.800Z,34.60
2022-08-12T16:00:04.442Z,34.10
2022-08-12T16:02:29.761Z,34.00
2022-08-12T16:04:57.415Z,34.00
2022-08-12T16:07:29.843Z,34.00
2022-08-12T16:10:05.108Z,34.10
2022-08-12T16:12:37.333Z,33.80
2022-08-12T16:15:07.265Z,33.80
2022-08-12T16:18:14.479Z,33.90
2022-08-12T16:20:33.186Z,33.80
2022-08-12T16:23:04.186Z,33.90
2022-08-12T16:26:03.285Z,33.80
2022-08-12T16:28:18.788Z,33.80
2022-08-12T16:30:49.984Z,33.80
2022-08-12T16:33:18.956Z,33.80
2022-08-12T16:35:49.937Z,33.80
2022-08-12T16:38:28.721Z,33.70
2022-08-12T16:40:57.088Z,33.70
2022-08-12T16:43:30.275Z,33.60
2022-08-12T16:46:23.940Z,33.40
2022-08-12T16:48:49.903Z,33.40
2022-08-12T16:51:17.904Z,33.40
2022-08-12T16:53:45.668Z,33.30
2022-08-12T16:56:16.957Z,33.00
2022-08-12T16:58:44.745Z,32.80
2022-08-12T17:01:15.751Z,32.70
2022-08-12T17:03:52.184Z,32.60
2022-08-12T17:06:22.600Z,32.50
2022-08-12T17:09:02.686Z,32.30
2022-08-12T17:11:32.725Z,32.10
2022-08-12T17:14:00.159Z,31.90
2022-08-12T17:16:30.282Z,31.70
2022-08-12T17:18:59.583Z,31.60
2022-08-12T17:21:40.267Z,31.50
2022-08-12T17:24:21.607Z,31.20
2022-08-12T17:26:53.285Z,31.10
2022-08-12T17:29:32.386Z,30.80
2022-08-12T17:32:11.433Z,30.70
2022-08-12T17:34:58.162Z,30.60
2022-08-12T17:37:27.457Z,30.60
2022-08-12T17:40:13.722Z,30.40
2022-08-12T17:42:47.262Z,30.30
2022-08-12T17:45:19.670Z,30.20
2022-08-12T17:48:01.649Z,30.20
2022-08-12T17:50:33.187Z,30.10
2022-08-12T17:53:02.493Z,30.00
2022-08-12T17:55:40.391Z,30.00
2022-08-12T17:58:13.881Z,30.00
2022-08-12T18:00:45.859Z,29.90
2022-08-12T18:04:05.054Z,29.80
2022-08-12T18:06:14.487Z,29.80
2022-08-12T18:08:54.253Z,29.80
2022-08-12T18:12:05.687Z,29.80
2022-08-12T18:14:30.143Z,29.70
2022-08-12T18:17:00.259Z,29.70
2022-08-12T18:20:03.926Z,29.60
2022-08-12T18:22:22.274Z,29.60
2022-08-12T18:25:04.964Z,29.50
2022-08-12T18:27:44.251Z,29.40
2022-08-12T18:30:20.595Z,29.30
2022-08-12T18:33:03.807Z,29.20
2022-08-12T18:35:53.142Z,29.10
2022-08-12T18:38:24.858Z,29.00
2022-08-12T18:41:21.742Z,28.90
2022-08-12T18:43:58.789Z,28.80
2022-08-12T18:46:45.916Z,28.70
2022-08-12T18:49:20.020Z,28.60
2022-08-12T18:52:02.357Z,28.40
2022-08-12T18:54:36.100Z,28.30
2022-08-12T18:57:19.350Z,28.20
2022-08-12T19:00:02.057Z,28.00
2022-08-12T19:02:36.178Z,27.90
2022-08-12T19:05:10.795Z,27.90
2022-08-12T19:07:59.861Z,27.80
2022-08-12T19:10:30.563Z,27.70
2022-08-12T19:13:23.898Z,27.60
2022-08-12T19:15:57.392Z,27.60
2022-08-12T19:18:29.280Z,27.50
2022-08-12T19:20:58.654Z,27.50
2022-08-12T19:23:33.857Z,27.50
2022-08-12T19:26:03.749Z,27.50
2022-08-12T19:28:34.896Z,27.50
2022-08-12T19:31:58.422Z,27.40
2022-08-12T19:36:06.801Z,27.40
2022-08-12T19:37:38.451Z,27.30
2022-08-12T19:40:20.453Z,27.30
2022-08-12T19:43:00.631Z,27.20
2022-08-12T19:45:43.711Z,27.10
2022-08-12T19:48:18.051Z,27.00
2022-08-12T19:50:50.662Z,26.90
2022-08-12T19:53:23.095Z,26.90
2022-08-12T19:55:52.714Z,26.80
2022-08-12T19:58:21.897Z,26.70
2022-08-12T20:00:56.388Z,26.70
2022-08-12T20:03:38.847Z,26.70
2022-08-12T20:06:15.887Z,26.60
2022-08-12T20:08:56.308Z,26.60
2022-08-12T20:12:11.623Z,26.50
2022-08-12T20:14:19.421Z,26.50
2022-08-12T20:16:52.450Z,26.40
2022-08-12T20:19:53.211Z,26.30
2022-08-12T20:22:23.420Z,26.30
2022-08-12T20:24:55.198Z,26.30
2022-08-12T20:27:28.687Z,26.20
2022-08-12T20:30:13.793Z,26.20
2022-08-12T20:33:01.356Z,26.10
2022-08-12T20:36:07.045Z,26.10
2022-08-12T20:38:27.389Z,26.10
2022-08-12T20:40:56.088Z,26.00
2022-08-12T20:43:28.413Z,26.00
2022-08-12T20:45:59.396Z,25.90
2022-08-12T20:48:29.499Z,25.80
2022-08-12T20:51:04.177Z,25.80
2022-08-12T20:53:53.980Z,25.80
2022-08-12T20:56:30.677Z,25.70
2022-08-12T20:59:01.101Z,25.60
2022-08-12T21:01:46.452Z,25.60
2022-08-12T21:04:35.976Z,25.50
2022-08-12T21:07:09.606Z,25.40
2022-08-12T21:09:42.447Z,25.40
2022-08-12T21:12:28.361Z,25.30
2022-08-12T21:15:17.420Z,25.30
2022-08-12T21:18:15.344Z,25.20
2022-08-12T21:20:52.542Z,25.20
2022-08-12T21:23:21.769Z,25.20
2022-08-12T21:25:52.662Z,25.10
2022-08-12T21:28:20.977Z,25.00
2022-08-12T21:31:10.444Z,25.00
2022-08-12T21:34:06.486Z,25.00
2022-08-12T21:36:34.206Z,24.90
2022-08-12T21:39:18.065Z,24.80
2022-08-12T21:41:51.135Z,24.70
2022-08-12T21:45:44.346Z,24.70
2022-08-12T21:47:19.913Z,24.60
2022-08-12T21:50:03.393Z,24.60
2022-08-12T21:52:35.641Z,24.50
2022-08-12T21:55:08.310Z,24.50
2022-08-12T21:57:50.451Z,24.50
2022-08-12T22:00:32.239Z,24.40
2022-08-12T22:04:01.586Z,24.30
2022-08-12T22:06:19.985Z,24.30
2022-08-12T22:08:55.605Z,24.20
2022-08-12T22:11:24.041Z,24.20
2022-08-12T22:14:21.584Z,24.10
2022-08-12T22:16:53.060Z,24.10
2022-08-12T22:19:20.999Z,24.00
2022-08-12T22:21:53.909Z,24.00
2022-08-12T22:24:26.381Z,23.90
2022-08-12T22:27:17.902Z,23.90
2022-08-12T22:30:16.794Z,23.80
2022-08-12T22:32:54.916Z,23.70
2022-08-12T22:35:47.480Z,23.70
2022-08-12T22:38:25.064Z,23.60
2022-08-12T22:41:00.906Z,23.60
2022-08-12T22:43:59.717Z,23.50
2022-08-12T22:46:53.503Z,23.40
2022-08-12T22:49:37.152Z,23.30
2022-08-12T22:52:18.427Z,23.20
2022-08-12T22:55:03.876Z,23.10
2022-08-12T22:57:53.554Z,23.10
2022-08-12T23:00:24.423Z,23.10
2022-08-12T23:03:00.439Z,23.00
2022-08-12T23:05:57.611Z,22.90
2022-08-12T23:08:29.833Z,22.80
2022-08-12T23:11:06.046Z,22.80
2022-08-12T23:13:54.940Z,22.70
2022-08-12T23:16:31.753Z,22.60
2022-08-12T23:19:10.612Z,22.60
2022-08-12T23:22:05.005Z,22.50
2022-08-12T23:24:56.260Z,22.50
2022-08-12T23:27:51.827Z,22.50
2022-08-12T23:30:31.621Z,22.50
2022-08-12T23:33:01.907Z,22.50
2022-08-12T23:35:45.481Z,22.40
2022-08-12T23:38:30.208Z,22.40
2022-08-12T23:41:03.317Z,22.30
2022-08-12T23:43:39.952Z,22.20
2022-08-12T23:46:18.571Z,22.20
2022-08-12T23:48:48.022Z,22.10
2022-08-12T23:51:23.523Z,22.00
2022-08-12T23:53:59.679Z,22.00
2022-08-12T23:56:29.375Z,21.90
2022-08-12T23:58:58.699Z,21.90
